• Join FlightAware (Why Join?)
  • Login
  • US Flag 
02:52PM EDT


 

Airport Tracker/Info


-or-


 

Live Flight TrackerFlight Track Log ✈ BJS439 ✈ 16-Apr-2013 ✈ KOKV - KTEB

Flight Track Log - Related Links

Times and Time Zones

All times are in EDT time to prevent confusion due to time zone crossing. See the BJS439 flight status page for this flight to view local times or setup timezone preferences in your user account.

Time Position Orientation Groundspeed Altitude Reporting Facility
EDT Latitude Longitude Course Direction KTS MPH feet Rate Location/Type
02:18PM 39.0833 -78.0500 129° Southeast 234 269 4,000  Level Potomac TRACON
02:19PM 39.1500 -78.0333 11° North 236 272 4,100 1,080 Climbing Potomac TRACON
02:20PM 39.2000 -78.0667 333° Northwest 217 250 6,300 2,220 Climbing Potomac TRACON
02:21PM 39.2500 -78.0333 27° Northeast 238 274 8,400 1,380 Climbing Potomac TRACON
02:22PM 39.3000 -77.9667 46° Northeast 267 307 9,000 240 Climbing Potomac TRACON
02:23PM 39.3000 -77.8333 90° East 312 359 9,000  Level Potomac TRACON
02:24PM 39.3167 -77.7500 75° East 314 361 9,000  Level Potomac TRACON
02:25PM 39.3167 -77.6167 90° East 290 334 9,000  Level Potomac TRACON
02:26PM 39.3167 -77.5333 90° East 283 326 9,100  Climbing Potomac TRACON
02:27PM 39.2667 -77.4500 128° Southeast 269 310 9,100 -60 Level Potomac TRACON
02:28PM 39.2833 -77.3500 78° East 299 344 9,000 360 Descending Potomac TRACON
02:29PM 39.3000 -77.2333 80° East 321 369 9,900 1,020 Climbing Potomac TRACON
02:30PM 39.3167 -77.1167 80° East 369 425 11,000 1,560 Climbing Potomac TRACON
02:32PM 39.2944 -76.8467 96° East 411 473 14,700 1,380 Climbing Washington Center
02:33PM 39.2647 -76.7042 105° East 418 481 15,400 960 Climbing Washington Center
02:34PM 39.2325 -76.5669 107° East 408 470 16,700 780 Climbing Washington Center
02:35PM 39.1981 -76.4272 108° East 403 464 17,000 60 Climbing Washington Center
02:36PM 39.1678 -76.2903 106° East 403 464 16,900 -60 Descending Washington Center
02:37PM 39.2081 -76.1647 67° East 379 436 16,900  Level Washington Center
02:38PM 39.2897 -76.0742 41° Northeast 356 410 17,000  Climbing Washington Center
02:39PM 39.3758 -75.9922 36° Northeast 396 456 17,000  Level FAA TRACON SMA TRACON (SMA)
02:39PM 39.3961 -75.9728 37° Northeast 394 453 17,000  Level FAA TRACON SMA TRACON (SMA)
02:40PM 39.4300 -75.9403 37° Northeast 395 455 17,000  Level FAA TRACON SMA TRACON (SMA)
02:40PM 39.4631 -75.9089 36° Northeast 395 455 17,000  Level FAA TRACON SMA TRACON (SMA)
02:41PM 39.4914 -75.8842 34° Northeast 395 455 17,000  Level FAA TRACON SMA TRACON (SMA)
02:41PM 39.5256 -75.8500 38° Northeast 395 455 17,000 -180 Level FAA TRACON SMA TRACON (SMA)
02:41PM 39.5514 -75.8244 37° Northeast 395 455 16,900 -840 Descending FAA TRACON SMA TRACON (SMA)
02:41PM 39.5800 -75.7978 36° Northeast 394 453 16,500 -1,500 Descending FAA TRACON SMA TRACON (SMA)
02:42PM 39.6069 -75.7722 36° Northeast 391 450 15,900 -2,100 Descending FAA TRACON SMA TRACON (SMA)
02:42PM 39.6397 -75.7417 36° Northeast 382 440 15,100 -2,160 Descending FAA TRACON SMA TRACON (SMA)
02:42PM 39.6642 -75.7206 34° Northeast 375 432 14,500 -1,740 Descending FAA TRACON SMA TRACON (SMA)
02:43PM 39.6858 -75.7022 33° Northeast 369 425 14,000 -1,500 Descending FAA TRACON SMA TRACON (SMA)
02:43PM 39.7236 -75.6661 36° Northeast 368 423 13,500 -1,200 Descending FAA TRACON SMA TRACON (SMA)
02:43PM 39.7489 -75.6439 34° Northeast 369 425 13,200 -780 Descending FAA TRACON SMA TRACON (SMA)
02:44PM 39.7747 -75.6183 37° Northeast 369 425 13,000 -300 Descending FAA TRACON SMA TRACON (SMA)
02:44PM 39.8078 -75.5889 34° Northeast 367 422 13,000  Level FAA TRACON SMA TRACON (SMA)
02:44PM 39.8336 -75.5653 35° Northeast 368 423 13,000  Level FAA TRACON SMA TRACON (SMA)
02:45PM 39.8592 -75.5417 35° Northeast 370 426 13,000  Level FAA TRACON SMA TRACON (SMA)
02:45PM 39.8922 -75.5106 36° Northeast 372 428 13,000  Level FAA TRACON SMA TRACON (SMA)
02:45PM 39.9183 -75.4861 36° Northeast 372 428 13,000  Level FAA TRACON SMA TRACON (SMA)
02:46PM 39.9433 -75.4633 35° Northeast 371 427 13,000  Level FAA TRACON SMA TRACON (SMA)
02:46PM 39.9750 -75.4333 36° Northeast 369 425 13,000  Level FAA TRACON SMA TRACON (SMA)
02:46PM 40.0031 -75.4086 34° Northeast 369 425 13,000  Level FAA TRACON SMA TRACON (SMA)
02:47PM 40.0292 -75.3833 37° Northeast 374 430 13,000  Level FAA TRACON SMA TRACON (SMA)
02:47PM 40.0556 -75.3586 36° Northeast 377 434 13,000  Level FAA TRACON SMA TRACON (SMA)
02:47PM 40.0892 -75.3278 35° Northeast 380 437 13,000  Level FAA TRACON SMA TRACON (SMA)
02:48PM 40.1161 -75.3028 35° Northeast 381 438 13,000  Level FAA TRACON SMA TRACON (SMA)
02:48PM 40.1428 -75.2772 36° Northeast 380 437 13,000 -300 Level FAA TRACON SMA TRACON (SMA)
02:48PM 40.1744 -75.2467 36° Northeast 374 430 12,800 -1,200 Descending FAA TRACON SMA TRACON (SMA)
02:49PM 40.1983 -75.2258 34° Northeast 345 397 12,200 -1,500 Descending FAA TRACON SMA TRACON (SMA)
02:49PM 40.2203 -75.2056 35° Northeast 300 345 11,800 -1,680 Descending FAA TRACON SMA TRACON (SMA)
02:49PM 40.2483 -75.1797 35° Northeast 319 367 11,100 -1,980 Descending FAA TRACON SMA TRACON (SMA)
02:50PM 40.2692 -75.1603 35° Northeast 317 365 10,500 -1,500 Descending FAA TRACON SMA TRACON (SMA)
02:50PM 40.2908 -75.1392 37° Northeast 308 354 10,100 -1,980 Descending FAA TRACON SMA TRACON (SMA)
02:50PM 40.3183 -75.1133 36° Northeast 311 358 9,200 -2,280 Descending FAA TRACON SMA TRACON (SMA)
02:51PM 40.3383 -75.0892 43° Northeast 320 368 8,600 -1,800 Descending FAA TRACON SMA TRACON (SMA)
02:51PM 40.3569 -75.0636 46° Northeast 314 361 8,000 -1,980 Descending FAA TRACON SMA TRACON (SMA)
02:51PM 40.3781 -75.0325 48° Northeast 304 350 7,300 -1,380 Descending FAA TRACON SMA TRACON (SMA)
02:52PM 40.3944 -75.0072 50° Northeast 301 346 7,100 -480 Descending FAA TRACON SMA TRACON (SMA)
02:52PM 40.4122 -74.9819 47° Northeast 296 341 7,000 -180 Descending FAA TRACON SMA TRACON (SMA)
02:52PM 40.4297 -74.9583 46° Northeast 296 341 7,000 -480 Level FAA TRACON SMA TRACON (SMA)
02:53PM 40.4514 -74.9281 47° Northeast 296 341 6,700 -1,380 Descending FAA TRACON SMA TRACON (SMA)
02:53PM 40.4689 -74.9036 47° Northeast 297 342 6,100 -2,100 Descending FAA TRACON SMA TRACON (SMA)
02:53PM 40.4894 -74.8719 50° Northeast 296 341 5,300 -2,100 Descending FAA TRACON SMA TRACON (SMA)
02:54PM 40.5069 -74.8489 45° Northeast 296 341 4,700 -1,380 Descending FAA TRACON SMA TRACON (SMA)
02:54PM 40.5250 -74.8242 46° Northeast 295 339 4,400 -480 Descending FAA TRACON SMA TRACON (SMA)
02:54PM 40.5250 -74.8242 90° East 295 339 4,400 -480 Level FAA TRACON SMA TRACON (SMA)
02:55PM 40.5833 -74.7667 37° Northeast 290 334 4,000 -300 Descending New York TRACON
02:56PM 40.6667 -74.7167 24° Northeast 301 346 4,000  Level New York TRACON
02:57PM 40.7333 -74.6667 30° Northeast 288 331 4,000  Level New York TRACON
02:58PM 40.8000 -74.6167 30° Northeast 297 342 4,000 -360 Level New York TRACON
02:59PM 40.8833 -74.5667 24° Northeast 295 339 3,300 -540 Descending New York TRACON
03:00PM 40.9333 -74.5000 45° Northeast 261 300 3,000 -180 Descending New York TRACON
03:01PM 40.9667 -74.4500 49° Northeast 247 284 3,000  Level New York TRACON
03:02PM 41.0000 -74.3667 62° Northeast 240 276 3,000  Level New York TRACON
03:03PM 41.0167 -74.2833 75° East 242 278 3,000  Level New York TRACON
03:04PM 41.0500 -74.2000 62° Northeast 232 267 3,000 -480 Level New York TRACON
03:05PM 41.0500 -74.1167 90° East 229 264 2,100 -480 Descending New York TRACON
03:06PM 41.0167 -74.0667 131° Southeast 165 190 2,000 -240 Descending New York TRACON
03:07PM 40.9667 -74.0500 166° South 177 204 1,700 -300 Descending New York TRACON
03:08PM 40.9167 -74.0500 180° South 145 167 1,400 -480 Descending New York TRACON
03:09PM 40.8833 -74.0500 180° South 119 137 800 -660 Descending New York TRACON
03:11PM 40.8500 -74.0500 57° Northeast  Level FlightAware Approximate
03:18PM 40.8501 -74.0608 57° Northeast  Level Estimated
03:19PM 40.8501 -74.0608 57° Northeast  Level Estimated